sensor_id;sensor_type;location;lat;lon;timestamp;P1;durP1;ratioP1;P2;durP2;ratioP2
37151;SDS011;23046;50.112;8.952;2023-06-14T00:00:07;3.47;;;3.17;;
37151;SDS011;23046;50.112;8.952;2023-06-14T00:00:18;3.60;;;3.17;;
37151;SDS011;23046;50.112;8.952;2023-06-14T00:00:28;3.50;;;3.20;;
37151;SDS011;23046;50.112;8.952;2023-06-14T00:00:38;3.72;;;3.42;;
37151;SDS011;23046;50.112;8.952;2023-06-14T00:00:53;3.80;;;3.40;;
37151;SDS011;23046;50.112;8.952;2023-06-14T00:01:06;4.30;;;3.40;;
37151;SDS011;23046;50.112;8.952;2023-06-14T00:01:17;4.03;;;3.40;;
37151;SDS011;23046;50.112;8.952;2023-06-14T00:01:30;3.75;;;3.38;;
37151;SDS011;23046;50.112;8.952;2023-06-14T00:01:44;3.47;;;3.22;;
37151;SDS011;23046;50.112;8.952;2023-06-14T00:01:56;3.40;;;3.20;;
37151;SDS011;23046;50.112;8.952;2023-06-14T00:02:06;3.67;;;3.37;;
37151;SDS011;23046;50.112;8.952;2023-06-14T00:02:18;3.50;;;3.20;;
37151;SDS011;23046;50.112;8.952;2023-06-14T00:02:28;3.42;;;3.13;;
37151;SDS011;23046;50.112;8.952;2023-06-14T00:02:39;3.83;;;3.50;;
37151;SDS011;23046;50.112;8.952;2023-06-14T00:02:49;4.20;;;3.80;;
37151;SDS011;23046;50.112;8.952;2023-06-14T00:02:59;4.10;;;3.70;;
37151;SDS011;23046;50.112;8.952;2023-06-14T00:03:10;3.80;;;3.50;;
37151;SDS011;23046;50.112;8.952;2023-06-14T00:03:21;3.78;;;3.47;;
37151;SDS011;23046;50.112;8.952;2023-06-14T00:03:32;4.10;;;3.70;;
37151;SDS011;23046;50.112;8.952;2023-06-14T00:03:42;3.90;;;3.60;;
37151;SDS011;23046;50.112;8.952;2023-06-14T00:03:53;3.87;;;3.53;;
37151;SDS011;23046;50.112;8.952;2023-06-14T00:04:06;4.35;;;3.35;;
37151;SDS011;23046;50.112;8.952;2023-06-14T00:04:18;4.25;;;3.17;;
37151;SDS011;23046;50.112;8.952;2023-06-14T00:04:30;3.67;;;3.17;;
37151;SDS011;23046;50.112;8.952;2023-06-14T00:04:40;3.83;;;3.33;;
37151;SDS011;23046;50.112;8.952;2023-06-14T00:04:51;4.73;;;3.43;;
37151;SDS011;23046;50.112;8.952;2023-06-14T00:05:02;4.93;;;3.67;;
37151;SDS011;23046;50.112;8.952;2023-06-14T00:05:15;4.90;;;3.60;;
37151;SDS011;23046;50.112;8.952;2023-06-14T00:05:25;4.85;;;3.55;;
37151;SDS011;23046;50.112;8.952;2023-06-14T00:05:36;4.53;;;3.40;;
37151;SDS011;23046;50.112;8.952;2023-06-14T00:05:52;4.30;;;3.40;;
37151;SDS011;23046;50.112;8.952;2023-06-14T00:06:02;3.80;;;3.50;;
37151;SDS011;23046;50.112;8.952;2023-06-14T00:06:13;4.75;;;3.60;;
37151;SDS011;23046;50.112;8.952;2023-06-14T00:06:23;4.63;;;3.50;;
37151;SDS011;23046;50.112;8.952;2023-06-14T00:06:34;5.05;;;3.35;;
37151;SDS011;23046;50.112;8.952;2023-06-14T00:06:44;3.93;;;3.33;;
37151;SDS011;23046;50.112;8.952;2023-06-14T00:06:55;6.30;;;3.42;;
37151;SDS011;23046;50.112;8.952;2023-06-14T00:07:06;5.85;;;3.45;;
37151;SDS011;23046;50.112;8.952;2023-06-14T00:07:22;4.13;;;3.35;;
37151;SDS011;23046;50.112;8.952;2023-06-14T00:07:43;4.65;;;3.65;;
37151;SDS011;23046;50.112;8.952;2023-06-14T00:07:53;5.03;;;3.80;;
37151;SDS011;23046;50.112;8.952;2023-06-14T00:08:03;4.47;;;3.43;;
37151;SDS011;23046;50.112;8.952;2023-06-14T00:08:17;4.40;;;3.33;;
37151;SDS011;23046;50.112;8.952;2023-06-14T00:08:28;4.10;;;3.30;;
37151;SDS011;23046;50.112;8.952;2023-06-14T00:08:39;4.20;;;3.40;;
37151;SDS011;23046;50.112;8.952;2023-06-14T00:08:51;3.88;;;3.58;;
37151;SDS011;23046;50.112;8.952;2023-06-14T00:09:02;3.80;;;3.50;;
37151;SDS011;23046;50.112;8.952;2023-06-14T00:09:12;3.80;;;3.50;;
37151;SDS011;23046;50.112;8.952;2023-06-14T00:09:23;3.90;;;3.60;;
37151;SDS011;23046;50.112;8.952;2023-06-14T00:09:33;3.77;;;3.47;;
37151;SDS011;23046;50.112;8.952;2023-06-14T00:09:43;3.97;;;3.40;;
37151;SDS011;23046;50.112;8.952;2023-06-14T00:09:56;3.83;;;3.20;;
37151;SDS011;23046;50.112;8.952;2023-06-14T00:10:06;3.70;;;3.25;;
37151;SDS011;23046;50.112;8.952;2023-06-14T00:10:16;3.47;;;3.27;;
37151;SDS011;23046;50.112;8.952;2023-06-14T00:10:27;3.67;;;3.37;;
37151;SDS011;23046;50.112;8.952;2023-06-14T00:10:43;3.80;;;3.45;;
37151;SDS011;23046;50.112;8.952;2023-06-14T00:10:53;3.93;;;3.57;;
37151;SDS011;23046;50.112;8.952;2023-06-14T00:11:04;4.50;;;3.40;;
37151;SDS011;23046;50.112;8.952;2023-06-14T00:11:14;4.57;;;3.40;;
37151;SDS011;23046;50.112;8.952;2023-06-14T00:11:24;4.57;;;3.38;;
37151;SDS011;23046;50.112;8.952;2023-06-14T00:11:36;3.80;;;3.50;;
37151;SDS011;23046;50.112;8.952;2023-06-14T00:11:46;3.90;;;3.50;;
37151;SDS011;23046;50.112;8.952;2023-06-14T00:11:57;4.13;;;3.43;;
37151;SDS011;23046;50.112;8.952;2023-06-14T00:12:07;3.93;;;3.40;;
37151;SDS011;23046;50.112;8.952;2023-06-14T00:12:18;4.35;;;3.40;;
37151;SDS011;23046;50.112;8.952;2023-06-14T00:12:28;4.60;;;3.50;;
37151;SDS011;23046;50.112;8.952;2023-06-14T00:12:39;5.33;;;3.70;;
37151;SDS011;23046;50.112;8.952;2023-06-14T00:12:49;4.80;;;3.80;;
37151;SDS011;23046;50.112;8.952;2023-06-14T00:12:59;4.10;;;3.67;;
37151;SDS011;23046;50.112;8.952;2023-06-14T00:13:10;3.97;;;3.58;;
37151;SDS011;23046;50.112;8.952;2023-06-14T00:13:21;3.70;;;3.40;;
37151;SDS011;23046;50.112;8.952;2023-06-14T00:13:31;3.77;;;3.47;;
37151;SDS011;23046;50.112;8.952;2023-06-14T00:13:43;3.70;;;3.40;;
37151;SDS011;23046;50.112;8.952;2023-06-14T00:13:54;3.77;;;3.43;;
37151;SDS011;23046;50.112;8.952;2023-06-14T00:14:04;3.70;;;3.40;;
37151;SDS011;23046;50.112;8.952;2023-06-14T00:14:14;3.85;;;3.40;;
37151;SDS011;23046;50.112;8.952;2023-06-14T00:14:25;3.77;;;3.40;;
37151;SDS011;23046;50.112;8.952;2023-06-14T00:14:35;3.80;;;3.50;;
37151;SDS011;23046;50.112;8.952;2023-06-14T00:14:45;3.70;;;3.40;;
37151;SDS011;23046;50.112;8.952;2023-06-14T00:14:55;4.30;;;3.30;;
37151;SDS011;23046;50.112;8.952;2023-06-14T00:15:07;5.00;;;3.37;;
37151;SDS011;23046;50.112;8.952;2023-06-14T00:15:19;7.88;;;3.42;;
37151;SDS011;23046;50.112;8.952;2023-06-14T00:15:30;6.80;;;3.45;;
37151;SDS011;23046;50.112;8.952;2023-06-14T00:15:41;6.05;;;3.63;;
37151;SDS011;23046;50.112;8.952;2023-06-14T00:15:52;3.90;;;3.50;;
37151;SDS011;23046;50.112;8.952;2023-06-14T00:16:04;3.80;;;3.50;;
37151;SDS011;23046;50.112;8.952;2023-06-14T00:16:15;3.83;;;3.53;;
37151;SDS011;23046;50.112;8.952;2023-06-14T00:16:26;3.78;;;3.47;;
37151;SDS011;23046;50.112;8.952;2023-06-14T00:16:37;3.47;;;3.17;;
37151;SDS011;23046;50.112;8.952;2023-06-14T00:16:48;3.53;;;3.22;;
37151;SDS011;23046;50.112;8.952;2023-06-14T00:16:59;4.67;;;3.50;;
37151;SDS011;23046;50.112;8.952;2023-06-14T00:17:09;4.50;;;3.57;;
37151;SDS011;23046;50.112;8.952;2023-06-14T00:17:19;4.50;;;3.50;;
37151;SDS011;23046;50.112;8.952;2023-06-14T00:17:30;3.50;;;3.22;;
37151;SDS011;23046;50.112;8.952;2023-06-14T00:17:41;3.60;;;3.30;;
37151;SDS011;23046;50.112;8.952;2023-06-14T00:17:51;3.60;;;3.30;;
37151;SDS011;23046;50.112;8.952;2023-06-14T00:18:02;4.28;;;3.38;;
37151;SDS011;23046;50.112;8.952;2023-06-14T00:18:12;4.37;;;3.20;;
37151;SDS011;23046;50.112;8.952;2023-06-14T00:18:22;5.30;;;3.27;;
37151;SDS011;23046;50.112;8.952;2023-06-14T00:18:34;5.57;;;3.33;;
37151;SDS011;23046;50.112;8.952;2023-06-14T00:18:44;5.03;;;3.40;;
37151;SDS011;23046;50.112;8.952;2023-06-14T00:18:54;3.93;;;3.30;;
37151;SDS011;23046;50.112;8.952;2023-06-14T00:19:04;3.72;;;3.40;;
37151;SDS011;23046;50.112;8.952;2023-06-14T00:19:15;3.83;;;3.40;;
37151;SDS011;23046;50.112;8.952;2023-06-14T00:19:25;4.90;;;3.43;;
37151;SDS011;23046;50.112;8.952;2023-06-14T00:19:36;4.88;;;3.50;;
37151;SDS011;23046;50.112;8.952;2023-06-14T00:19:49;4.03;;;3.55;;
37151;SDS011;23046;50.112;8.952;2023-06-14T00:20:00;3.75;;;3.45;;
37151;SDS011;23046;50.112;8.952;2023-06-14T00:20:10;3.93;;;3.30;;
37151;SDS011;23046;50.112;8.952;2023-06-14T00:20:21;4.10;;;3.25;;
37151;SDS011;23046;50.112;8.952;2023-06-14T00:20:32;4.50;;;3.23;;
37151;SDS011;23046;50.112;8.952;2023-06-14T00:20:42;3.55;;;3.17;;
37151;SDS011;23046;50.112;8.952;2023-06-14T00:20:53;4.57;;;3.28;;
37151;SDS011;23046;50.112;8.952;2023-06-14T00:21:03;4.40;;;3.37;;
37151;SDS011;23046;50.112;8.952;2023-06-14T00:21:14;5.33;;;3.57;;
37151;SDS011;23046;50.112;8.952;2023-06-14T00:21:24;4.55;;;3.47;;
37151;SDS011;23046;50.112;8.952;2023-06-14T00:21:37;3.83;;;3.30;;
37151;SDS011;23046;50.112;8.952;2023-06-14T00:21:48;3.47;;;3.17;;
37151;SDS011;23046;50.112;8.952;2023-06-14T00:21:58;3.42;;;3.13;;
37151;SDS011;23046;50.112;8.952;2023-06-14T00:22:09;3.60;;;3.30;;
37151;SDS011;23046;50.112;8.952;2023-06-14T00:22:19;3.80;;;3.50;;
37151;SDS011;23046;50.112;8.952;2023-06-14T00:22:29;3.80;;;3.50;;
37151;SDS011;23046;50.112;8.952;2023-06-14T00:22:41;4.00;;;3.60;;
37151;SDS011;23046;50.112;8.952;2023-06-14T00:22:51;5.60;;;3.50;;
37151;SDS011;23046;50.112;8.952;2023-06-14T00:23:02;6.03;;;3.70;;
37151;SDS011;23046;50.112;8.952;2023-06-14T00:23:12;5.50;;;3.40;;
37151;SDS011;23046;50.112;8.952;2023-06-14T00:23:22;3.50;;;3.20;;
37151;SDS011;23046;50.112;8.952;2023-06-14T00:23:32;3.40;;;3.10;;
37151;SDS011;23046;50.112;8.952;2023-06-14T00:23:42;3.60;;;3.30;;
37151;SDS011;23046;50.112;8.952;2023-06-14T00:23:53;4.37;;;3.50;;
37151;SDS011;23046;50.112;8.952;2023-06-14T00:24:03;4.45;;;3.60;;
37151;SDS011;23046;50.112;8.952;2023-06-14T00:24:14;4.17;;;3.37;;
37151;SDS011;23046;50.112;8.952;2023-06-14T00:24:24;3.50;;;3.20;;
37151;SDS011;23046;50.112;8.952;2023-06-14T00:24:34;4.00;;;3.20;;
37151;SDS011;23046;50.112;8.952;2023-06-14T00:24:45;4.13;;;3.47;;
37151;SDS011;23046;50.112;8.952;2023-06-14T00:24:55;4.03;;;3.60;;
37151;SDS011;23046;50.112;8.952;2023-06-14T00:25:05;3.92;;;3.58;;
37151;SDS011;23046;50.112;8.952;2023-06-14T00:25:16;3.70;;;3.40;;
37151;SDS011;23046;50.112;8.952;2023-06-14T00:25:26;3.58;;;3.28;;
37151;SDS011;23046;50.112;8.952;2023-06-14T00:25:37;3.58;;;3.28;;
37151;SDS011;23046;50.112;8.952;2023-06-14T00:25:47;3.67;;;3.37;;
37151;SDS011;23046;50.112;8.952;2023-06-14T00:25:57;3.60;;;3.30;;
37151;SDS011;23046;50.112;8.952;2023-06-14T00:26:08;3.60;;;3.30;;
37151;SDS011;23046;50.112;8.952;2023-06-14T00:26:19;4.05;;;3.30;;
37151;SDS011;23046;50.112;8.952;2023-06-14T00:26:29;4.67;;;3.37;;
37151;SDS011;23046;50.112;8.952;2023-06-14T00:26:39;4.53;;;3.30;;
37151;SDS011;23046;50.112;8.952;2023-06-14T00:26:50;4.23;;;3.30;;
37151;SDS011;23046;50.112;8.952;2023-06-14T00:27:01;3.88;;;3.50;;
37151;SDS011;23046;50.112;8.952;2023-06-14T00:27:12;3.95;;;3.60;;
37151;SDS011;23046;50.112;8.952;2023-06-14T00:27:23;3.80;;;3.43;;
37151;SDS011;23046;50.112;8.952;2023-06-14T00:27:34;3.60;;;3.30;;
37151;SDS011;23046;50.112;8.952;2023-06-14T00:27:44;3.53;;;3.23;;
37151;SDS011;23046;50.112;8.952;2023-06-14T00:27:55;3.80;;;3.50;;
37151;SDS011;23046;50.112;8.952;2023-06-14T00:28:05;3.73;;;3.43;;
37151;SDS011;23046;50.112;8.952;2023-06-14T00:28:15;3.87;;;3.57;;
37151;SDS011;23046;50.112;8.952;2023-06-14T00:28:27;3.78;;;3.47;;
37151;SDS011;23046;50.112;8.952;2023-06-14T00:28:37;3.90;;;3.60;;
37151;SDS011;23046;50.112;8.952;2023-06-14T00:28:50;3.78;;;3.47;;
37151;SDS011;23046;50.112;8.952;2023-06-14T00:29:00;3.75;;;3.45;;
37151;SDS011;23046;50.112;8.952;2023-06-14T00:29:11;3.80;;;3.50;;
37151;SDS011;23046;50.112;8.952;2023-06-14T00:29:21;3.77;;;3.47;;
37151;SDS011;23046;50.112;8.952;2023-06-14T00:29:31;3.73;;;3.43;;
37151;SDS011;23046;50.112;8.952;2023-06-14T00:29:41;3.70;;;3.40;;
37151;SDS011;23046;50.112;8.952;2023-06-14T00:29:52;3.90;;;3.50;;
37151;SDS011;23046;50.112;8.952;2023-06-14T00:30:02;3.73;;;3.43;;
37151;SDS011;23046;50.112;8.952;2023-06-14T00:30:12;3.97;;;3.57;;
37151;SDS011;23046;50.112;8.952;2023-06-14T00:30:23;3.90;;;3.50;;
37151;SDS011;23046;50.112;8.952;2023-06-14T00:30:33;3.85;;;3.50;;
37151;SDS011;23046;50.112;8.952;2023-06-14T00:30:46;3.83;;;3.50;;
37151;SDS011;23046;50.112;8.952;2023-06-14T00:30:56;4.30;;;3.80;;
37151;SDS011;23046;50.112;8.952;2023-06-14T00:31:07;4.23;;;3.73;;
37151;SDS011;23046;50.112;8.952;2023-06-14T00:31:17;4.30;;;3.90;;
37151;SDS011;23046;50.112;8.952;2023-06-14T00:31:27;4.07;;;3.67;;
37151;SDS011;23046;50.112;8.952;2023-06-14T00:31:38;4.05;;;3.67;;
37151;SDS011;23046;50.112;8.952;2023-06-14T00:31:48;4.00;;;3.60;;
37151;SDS011;23046;50.112;8.952;2023-06-14T00:31:58;3.90;;;3.50;;
37151;SDS011;23046;50.112;8.952;2023-06-14T00:32:10;3.83;;;3.42;;
37151;SDS011;23046;50.112;8.952;2023-06-14T00:32:23;3.55;;;3.25;;
37151;SDS011;23046;50.112;8.952;2023-06-14T00:32:35;3.45;;;3.15;;
37151;SDS011;23046;50.112;8.952;2023-06-14T00:32:46;3.60;;;3.30;;
37151;SDS011;23046;50.112;8.952;2023-06-14T00:32:56;3.67;;;3.33;;
37151;SDS011;23046;50.112;8.952;2023-06-14T00:33:09;4.00;;;3.50;;
37151;SDS011;23046;50.112;8.952;2023-06-14T00:33:19;4.00;;;3.57;;
37151;SDS011;23046;50.112;8.952;2023-06-14T00:33:29;5.27;;;3.67;;
37151;SDS011;23046;50.112;8.952;2023-06-14T00:33:40;4.78;;;3.50;;
37151;SDS011;23046;50.112;8.952;2023-06-14T00:33:50;4.60;;;3.33;;
37151;SDS011;23046;50.112;8.952;2023-06-14T00:34:00;3.50;;;3.20;;
37151;SDS011;23046;50.112;8.952;2023-06-14T00:34:11;3.90;;;3.20;;
37151;SDS011;23046;50.112;8.952;2023-06-14T00:34:21;4.40;;;3.20;;
37151;SDS011;23046;50.112;8.952;2023-06-14T00:34:31;4.20;;;3.20;;
37151;SDS011;23046;50.112;8.952;2023-06-14T00:34:41;3.43;;;3.13;;
37151;SDS011;23046;50.112;8.952;2023-06-14T00:34:52;3.58;;;3.28;;
37151;SDS011;23046;50.112;8.952;2023-06-14T00:35:02;3.60;;;3.30;;
37151;SDS011;23046;50.112;8.952;2023-06-14T00:35:13;3.67;;;3.30;;
37151;SDS011;23046;50.112;8.952;2023-06-14T00:35:24;3.58;;;3.28;;
37151;SDS011;23046;50.112;8.952;2023-06-14T00:35:35;3.70;;;3.40;;
37151;SDS011;23046;50.112;8.952;2023-06-14T00:35:45;3.80;;;3.50;;
37151;SDS011;23046;50.112;8.952;2023-06-14T00:35:57;3.90;;;3.40;;
37151;SDS011;23046;50.112;8.952;2023-06-14T00:36:07;3.80;;;3.35;;
37151;SDS011;23046;50.112;8.952;2023-06-14T00:36:17;3.67;;;3.33;;
37151;SDS011;23046;50.112;8.952;2023-06-14T00:36:27;3.67;;;3.37;;
37151;SDS011;23046;50.112;8.952;2023-06-14T00:36:37;3.70;;;3.40;;
37151;SDS011;23046;50.112;8.952;2023-06-14T00:36:48;3.70;;;3.40;;
37151;SDS011;23046;50.112;8.952;2023-06-14T00:36:58;3.80;;;3.50;;
37151;SDS011;23046;50.112;8.952;2023-06-14T00:37:09;4.00;;;3.37;;
37151;SDS011;23046;50.112;8.952;2023-06-14T00:37:19;6.53;;;3.30;;
37151;SDS011;23046;50.112;8.952;2023-06-14T00:37:29;6.77;;;3.33;;
37151;SDS011;23046;50.112;8.952;2023-06-14T00:37:40;8.10;;;3.40;;
37151;SDS011;23046;50.112;8.952;2023-06-14T00:37:50;5.63;;;3.50;;
37151;SDS011;23046;50.112;8.952;2023-06-14T00:38:00;4.87;;;3.40;;
37151;SDS011;23046;50.112;8.952;2023-06-14T00:38:12;3.58;;;3.28;;
37151;SDS011;23046;50.112;8.952;2023-06-14T00:38:24;4.07;;;3.28;;
37151;SDS011;23046;50.112;8.952;2023-06-14T00:38:34;5.50;;;3.30;;
37151;SDS011;23046;50.112;8.952;2023-06-14T00:38:45;5.93;;;3.33;;
37151;SDS011;23046;50.112;8.952;2023-06-14T00:38:58;5.10;;;3.33;;
37151;SDS011;23046;50.112;8.952;2023-06-14T00:39:09;3.50;;;3.20;;
37151;SDS011;23046;50.112;8.952;2023-06-14T00:39:19;3.70;;;3.40;;
37151;SDS011;23046;50.112;8.952;2023-06-14T00:39:30;3.67;;;3.37;;
37151;SDS011;23046;50.112;8.952;2023-06-14T00:39:40;3.83;;;3.53;;
37151;SDS011;23046;50.112;8.952;2023-06-14T00:39:50;4.00;;;3.53;;
37151;SDS011;23046;50.112;8.952;2023-06-14T00:40:03;3.95;;;3.50;;
37151;SDS011;23046;50.112;8.952;2023-06-14T00:40:14;3.95;;;3.42;;
37151;SDS011;23046;50.112;8.952;2023-06-14T00:40:24;3.80;;;3.40;;
37151;SDS011;23046;50.112;8.952;2023-06-14T00:40:34;3.67;;;3.37;;
37151;SDS011;23046;50.112;8.952;2023-06-14T00:40:45;4.00;;;3.60;;
37151;SDS011;23046;50.112;8.952;2023-06-14T00:40:57;3.83;;;3.53;;
37151;SDS011;23046;50.112;8.952;2023-06-14T00:41:07;3.78;;;3.47;;
37151;SDS011;23046;50.112;8.952;2023-06-14T00:41:18;4.10;;;3.47;;
37151;SDS011;23046;50.112;8.952;2023-06-14T00:41:28;4.88;;;3.55;;
37151;SDS011;23046;50.112;8.952;2023-06-14T00:41:39;4.87;;;3.60;;
37151;SDS011;23046;50.112;8.952;2023-06-14T00:41:49;3.95;;;3.55;;
37151;SDS011;23046;50.112;8.952;2023-06-14T00:42:00;4.10;;;3.40;;
37151;SDS011;23046;50.112;8.952;2023-06-14T00:42:10;3.73;;;3.27;;
37151;SDS011;23046;50.112;8.952;2023-06-14T00:42:23;3.93;;;3.20;;
37151;SDS011;23046;50.112;8.952;2023-06-14T00:42:34;3.30;;;3.00;;
37151;SDS011;23046;50.112;8.952;2023-06-14T00:42:44;4.00;;;3.20;;
37151;SDS011;23046;50.112;8.952;2023-06-14T00:42:55;4.27;;;3.43;;
37151;SDS011;23046;50.112;8.952;2023-06-14T00:43:05;4.37;;;3.43;;
37151;SDS011;23046;50.112;8.952;2023-06-14T00:43:17;3.72;;;3.42;;
37151;SDS011;23046;50.112;8.952;2023-06-14T00:43:27;3.60;;;3.30;;
37151;SDS011;23046;50.112;8.952;2023-06-14T00:43:38;3.80;;;3.50;;
37151;SDS011;23046;50.112;8.952;2023-06-14T00:43:48;3.63;;;3.33;;
37151;SDS011;23046;50.112;8.952;2023-06-14T00:43:59;3.90;;;3.50;;
37151;SDS011;23046;50.112;8.952;2023-06-14T00:44:09;3.80;;;3.50;;
37151;SDS011;23046;50.112;8.952;2023-06-14T00:44:20;3.80;;;3.50;;
37151;SDS011;23046;50.112;8.952;2023-06-14T00:44:31;3.50;;;3.30;;
37151;SDS011;23046;50.112;8.952;2023-06-14T00:44:41;4.00;;;3.35;;
37151;SDS011;23046;50.112;8.952;2023-06-14T00:44:52;5.27;;;3.47;;
37151;SDS011;23046;50.112;8.952;2023-06-14T00:45:02;5.43;;;3.53;;
37151;SDS011;23046;50.112;8.952;2023-06-14T00:45:12;4.27;;;3.40;;
37151;SDS011;23046;50.112;8.952;2023-06-14T00:45:23;3.72;;;3.42;;
37151;SDS011;23046;50.112;8.952;2023-06-14T00:45:33;3.53;;;3.30;;
37151;SDS011;23046;50.112;8.952;2023-06-14T00:45:45;4.00;;;3.63;;
37151;SDS011;23046;50.112;8.952;2023-06-14T00:45:57;6.05;;;3.50;;
37151;SDS011;23046;50.112;8.952;2023-06-14T00:46:08;6.03;;;3.50;;
37151;SDS011;23046;50.112;8.952;2023-06-14T00:46:18;5.50;;;3.40;;
37151;SDS011;23046;50.112;8.952;2023-06-14T00:46:29;3.55;;;3.30;;
37151;SDS011;23046;50.112;8.952;2023-06-14T00:46:39;3.43;;;3.20;;
37151;SDS011;23046;50.112;8.952;2023-06-14T00:46:50;3.40;;;3.10;;
37151;SDS011;23046;50.112;8.952;2023-06-14T00:47:01;3.45;;;3.15;;
37151;SDS011;23046;50.112;8.952;2023-06-14T00:47:12;3.40;;;3.10;;
37151;SDS011;23046;50.112;8.952;2023-06-14T00:47:22;3.50;;;3.20;;
37151;SDS011;23046;50.112;8.952;2023-06-14T00:47:33;4.10;;;3.35;;
37151;SDS011;23046;50.112;8.952;2023-06-14T00:47:44;4.82;;;3.53;;
37151;SDS011;23046;50.112;8.952;2023-06-14T00:47:55;4.93;;;3.70;;
37151;SDS011;23046;50.112;8.952;2023-06-14T00:48:06;4.17;;;3.70;;
37151;SDS011;23046;50.112;8.952;2023-06-14T00:48:17;4.07;;;3.67;;
37151;SDS011;23046;50.112;8.952;2023-06-14T00:48:28;4.10;;;3.70;;
37151;SDS011;23046;50.112;8.952;2023-06-14T00:48:38;3.92;;;3.58;;
37151;SDS011;23046;50.112;8.952;2023-06-14T00:48:50;3.90;;;3.60;;
37151;SDS011;23046;50.112;8.952;2023-06-14T00:49:00;3.80;;;3.50;;
37151;SDS011;23046;50.112;8.952;2023-06-14T00:49:12;3.90;;;3.60;;
37151;SDS011;23046;50.112;8.952;2023-06-14T00:49:22;4.15;;;3.72;;
37151;SDS011;23046;50.112;8.952;2023-06-14T00:49:32;4.27;;;3.87;;
37151;SDS011;23046;50.112;8.952;2023-06-14T00:49:46;4.07;;;3.63;;
37151;SDS011;23046;50.112;8.952;2023-06-14T00:49:57;3.83;;;3.50;;
37151;SDS011;23046;50.112;8.952;2023-06-14T00:50:08;3.50;;;3.20;;
37151;SDS011;23046;50.112;8.952;2023-06-14T00:50:19;3.50;;;3.20;;
37151;SDS011;23046;50.112;8.952;2023-06-14T00:50:30;3.40;;;3.10;;
37151;SDS011;23046;50.112;8.952;2023-06-14T00:50:42;3.63;;;3.22;;
37151;SDS011;23046;50.112;8.952;2023-06-14T00:50:56;4.40;;;3.13;;
37151;SDS011;23046;50.112;8.952;2023-06-14T00:51:07;5.13;;;3.28;;
37151;SDS011;23046;50.112;8.952;2023-06-14T00:51:17;4.23;;;3.13;;
37151;SDS011;23046;50.112;8.952;2023-06-14T00:51:28;3.50;;;3.20;;
37151;SDS011;23046;50.112;8.952;2023-06-14T00:51:38;3.50;;;3.20;;
37151;SDS011;23046;50.112;8.952;2023-06-14T00:51:49;4.53;;;3.38;;
37151;SDS011;23046;50.112;8.952;2023-06-14T00:52:00;5.23;;;3.50;;
37151;SDS011;23046;50.112;8.952;2023-06-14T00:52:10;5.55;;;3.47;;
37151;SDS011;23046;50.112;8.952;2023-06-14T00:52:22;3.90;;;3.30;;
37151;SDS011;23046;50.112;8.952;2023-06-14T00:52:42;3.80;;;3.40;;
37151;SDS011;23046;50.112;8.952;2023-06-14T00:52:52;3.83;;;3.43;;
37151;SDS011;23046;50.112;8.952;2023-06-14T00:53:03;4.10;;;3.50;;
37151;SDS011;23046;50.112;8.952;2023-06-14T00:53:14;4.38;;;3.33;;
37151;SDS011;23046;50.112;8.952;2023-06-14T00:53:28;3.78;;;3.13;;
37151;SDS011;23046;50.112;8.952;2023-06-14T00:53:39;3.58;;;3.15;;
37151;SDS011;23046;50.112;8.952;2023-06-14T00:53:53;3.58;;;3.28;;
37151;SDS011;23046;50.112;8.952;2023-06-14T00:54:03;3.80;;;3.30;;
37151;SDS011;23046;50.112;8.952;2023-06-14T00:54:13;3.87;;;3.37;;
37151;SDS011;23046;50.112;8.952;2023-06-14T00:54:24;4.70;;;3.43;;
37151;SDS011;23046;50.112;8.952;2023-06-14T00:54:34;4.03;;;3.42;;
37151;SDS011;23046;50.112;8.952;2023-06-14T00:54:44;4.67;;;3.60;;
37151;SDS011;23046;50.112;8.952;2023-06-14T00:54:55;4.23;;;3.83;;
37151;SDS011;23046;50.112;8.952;2023-06-14T00:55:06;4.45;;;3.85;;
37151;SDS011;23046;50.112;8.952;2023-06-14T00:55:16;4.47;;;3.63;;
37151;SDS011;23046;50.112;8.952;2023-06-14T00:55:26;3.90;;;3.30;;
37151;SDS011;23046;50.112;8.952;2023-06-14T00:55:39;3.72;;;3.40;;
37151;SDS011;23046;50.112;8.952;2023-06-14T00:55:49;3.70;;;3.40;;
37151;SDS011;23046;50.112;8.952;2023-06-14T00:56:00;3.78;;;3.47;;
37151;SDS011;23046;50.112;8.952;2023-06-14T00:56:11;3.70;;;3.40;;
37151;SDS011;23046;50.112;8.952;2023-06-14T00:56:23;3.83;;;3.50;;
37151;SDS011;23046;50.112;8.952;2023-06-14T00:56:40;3.92;;;3.50;;
37151;SDS011;23046;50.112;8.952;2023-06-14T00:56:51;4.05;;;3.65;;
37151;SDS011;23046;50.112;8.952;2023-06-14T00:57:02;4.32;;;3.60;;
37151;SDS011;23046;50.112;8.952;2023-06-14T00:57:13;4.30;;;3.50;;
37151;SDS011;23046;50.112;8.952;2023-06-14T00:57:24;4.47;;;3.50;;
37151;SDS011;23046;50.112;8.952;2023-06-14T00:57:35;4.60;;;3.63;;
37151;SDS011;23046;50.112;8.952;2023-06-14T00:57:47;4.47;;;3.60;;
37151;SDS011;23046;50.112;8.952;2023-06-14T00:57:58;4.80;;;3.38;;
37151;SDS011;23046;50.112;8.952;2023-06-14T00:58:09;3.87;;;3.30;;
37151;SDS011;23046;50.112;8.952;2023-06-14T00:58:21;3.70;;;3.20;;
37151;SDS011;23046;50.112;8.952;2023-06-14T00:58:32;4.28;;;3.30;;
37151;SDS011;23046;50.112;8.952;2023-06-14T00:58:42;4.83;;;3.37;;
37151;SDS011;23046;50.112;8.952;2023-06-14T00:58:53;4.68;;;3.30;;
37151;SDS011;23046;50.112;8.952;2023-06-14T00:59:03;3.53;;;3.23;;
37151;SDS011;23046;50.112;8.952;2023-06-14T00:59:14;3.47;;;3.17;;
37151;SDS011;23046;50.112;8.952;2023-06-14T00:59:25;3.75;;;3.35;;
37151;SDS011;23046;50.112;8.952;2023-06-14T00:59:38;4.00;;;3.43;;
37151;SDS011;23046;50.112;8.952;2023-06-14T00:59:52;3.83;;;3.45;;
37151;SDS011;23046;50.112;8.952;2023-06-14T01:00:03;3.90;;;3.50;;
37151;SDS011;23046;50.112;8.952;2023-06-14T01:00:21;4.70;;;3.80;;
37151;SDS011;23046;50.112;8.952;2023-06-14T01:00:32;4.75;;;3.80;;
37151;SDS011;23046;50.112;8.952;2023-06-14T01:00:42;4.17;;;3.60;;
37151;SDS011;23046;50.112;8.952;2023-06-14T01:00:52;4.10;;;3.47;;
37151;SDS011;23046;50.112;8.952;2023-06-14T01:01:02;4.20;;;3.53;;
37151;SDS011;23046;50.112;8.952;2023-06-14T01:01:12;5.07;;;3.50;;
37151;SDS011;23046;50.112;8.952;2023-06-14T01:01:24;5.03;;;3.50;;
37151;SDS011;23046;50.112;8.952;2023-06-14T01:01:34;4.23;;;3.40;;
37151;SDS011;23046;50.112;8.952;2023-06-14T01:01:44;3.67;;;3.37;;
37151;SDS011;23046;50.112;8.952;2023-06-14T01:01:55;4.32;;;3.33;;
37151;SDS011;23046;50.112;8.952;2023-06-14T01:02:05;4.13;;;3.40;;
37151;SDS011;23046;50.112;8.952;2023-06-14T01:02:16;4.33;;;3.47;;
37151;SDS011;23046;50.112;8.952;2023-06-14T01:02:26;3.70;;;3.40;;
37151;SDS011;23046;50.112;8.952;2023-06-14T01:02:37;3.63;;;3.33;;
37151;SDS011;23046;50.112;8.952;2023-06-14T01:02:47;3.70;;;3.40;;
37151;SDS011;23046;50.112;8.952;2023-06-14T01:02:59;3.80;;;3.50;;
37151;SDS011;23046;50.112;8.952;2023-06-14T01:03:09;3.80;;;3.50;;
37151;SDS011;23046;50.112;8.952;2023-06-14T01:03:22;5.05;;;3.33;;
37151;SDS011;23046;50.112;8.952;2023-06-14T01:03:33;5.80;;;3.50;;
37151;SDS011;23046;50.112;8.952;2023-06-14T01:03:43;4.57;;;3.35;;
37151;SDS011;23046;50.112;8.952;2023-06-14T01:03:53;3.90;;;3.47;;
37151;SDS011;23046;50.112;8.952;2023-06-14T01:04:04;4.53;;;3.40;;
37151;SDS011;23046;50.112;8.952;2023-06-14T01:04:15;5.28;;;3.60;;
37151;SDS011;23046;50.112;8.952;2023-06-14T01:04:25;4.53;;;3.53;;
37151;SDS011;23046;50.112;8.952;2023-06-14T01:04:36;3.73;;;3.40;;
37151;SDS011;23046;50.112;8.952;2023-06-14T01:04:49;3.60;;;3.30;;
37151;SDS011;23046;50.112;8.952;2023-06-14T01:04:59;3.70;;;3.40;;
37151;SDS011;23046;50.112;8.952;2023-06-14T01:05:11;3.65;;;3.35;;
37151;SDS011;23046;50.112;8.952;2023-06-14T01:05:24;3.58;;;3.28;;
37151;SDS011;23046;50.112;8.952;2023-06-14T01:05:35;3.50;;;3.20;;
37151;SDS011;23046;50.112;8.952;2023-06-14T01:05:45;3.40;;;3.10;;
37151;SDS011;23046;50.112;8.952;2023-06-14T01:06:15;3.57;;;3.23;;
37151;SDS011;23046;50.112;8.952;2023-06-14T01:08:47;5.07;;;3.30;;